sensor_id;sensor_type;location;lat;lon;timestamp;temperature;humidity
12152;DHT22;6139;51.274;7.128;2022-10-16T00:00:24;13.30;99.90
12152;DHT22;6139;51.274;7.128;2022-10-16T00:01:27;13.30;99.90
12152;DHT22;6139;51.274;7.128;2022-10-16T00:02:29;13.30;99.90
12152;DHT22;6139;51.274;7.128;2022-10-16T00:03:30;13.30;99.90
12152;DHT22;6139;51.274;7.128;2022-10-16T00:04:32;13.30;99.90
12152;DHT22;6139;51.274;7.128;2022-10-16T00:05:38;13.30;99.90
12152;DHT22;6139;51.274;7.128;2022-10-16T00:06:40;13.30;99.90
12152;DHT22;6139;51.274;7.128;2022-10-16T00:07:41;13.40;99.90
12152;DHT22;6139;51.274;7.128;2022-10-16T00:08:44;13.40;99.90
12152;DHT22;6139;51.274;7.128;2022-10-16T00:09:46;13.30;99.90
12152;DHT22;6139;51.274;7.128;2022-10-16T00:10:48;13.40;99.90
12152;DHT22;6139;51.274;7.128;2022-10-16T00:11:49;13.40;99.90
12152;DHT22;6139;51.274;7.128;2022-10-16T00:12:51;13.30;99.90
12152;DHT22;6139;51.274;7.128;2022-10-16T00:13:55;13.40;99.90
12152;DHT22;6139;51.274;7.128;2022-10-16T00:14:57;13.40;99.90
12152;DHT22;6139;51.274;7.128;2022-10-16T00:16:00;13.40;99.90
12152;DHT22;6139;51.274;7.128;2022-10-16T00:17:02;13.30;99.90
12152;DHT22;6139;51.274;7.128;2022-10-16T00:18:04;13.40;99.90
12152;DHT22;6139;51.274;7.128;2022-10-16T00:19:06;13.40;99.90
12152;DHT22;6139;51.274;7.128;2022-10-16T00:20:08;13.40;99.90
12152;DHT22;6139;51.274;7.128;2022-10-16T00:21:30;13.40;99.90
12152;DHT22;6139;51.274;7.128;2022-10-16T00:22:50;13.40;99.90
12152;DHT22;6139;51.274;7.128;2022-10-16T00:23:53;13.40;99.90
12152;DHT22;6139;51.274;7.128;2022-10-16T00:24:54;13.40;99.90
12152;DHT22;6139;51.274;7.128;2022-10-16T00:25:58;13.40;99.90
12152;DHT22;6139;51.274;7.128;2022-10-16T00:26:59;13.40;99.90
12152;DHT22;6139;51.274;7.128;2022-10-16T00:28:01;13.40;99.90
12152;DHT22;6139;51.274;7.128;2022-10-16T00:29:04;13.40;99.90
12152;DHT22;6139;51.274;7.128;2022-10-16T00:30:07;13.40;99.90
12152;DHT22;6139;51.274;7.128;2022-10-16T00:31:10;13.40;99.90
12152;DHT22;6139;51.274;7.128;2022-10-16T00:32:12;13.40;99.90
12152;DHT22;6139;51.274;7.128;2022-10-16T00:33:14;13.40;99.90
12152;DHT22;6139;51.274;7.128;2022-10-16T00:34:16;13.40;99.90
12152;DHT22;6139;51.274;7.128;2022-10-16T00:35:17;13.40;99.90
12152;DHT22;6139;51.274;7.128;2022-10-16T00:36:20;13.40;99.90
12152;DHT22;6139;51.274;7.128;2022-10-16T00:37:22;13.40;99.90
12152;DHT22;6139;51.274;7.128;2022-10-16T00:38:24;13.40;99.90
12152;DHT22;6139;51.274;7.128;2022-10-16T00:39:26;13.50;99.90
12152;DHT22;6139;51.274;7.128;2022-10-16T00:40:28;13.50;99.90
12152;DHT22;6139;51.274;7.128;2022-10-16T00:41:31;13.50;99.90
12152;DHT22;6139;51.274;7.128;2022-10-16T00:42:33;13.40;99.90
12152;DHT22;6139;51.274;7.128;2022-10-16T00:43:38;13.50;99.90
12152;DHT22;6139;51.274;7.128;2022-10-16T00:44:47;13.50;99.90
12152;DHT22;6139;51.274;7.128;2022-10-16T00:45:48;13.50;99.90
12152;DHT22;6139;51.274;7.128;2022-10-16T00:46:51;13.40;99.90
12152;DHT22;6139;51.274;7.128;2022-10-16T00:47:54;13.40;99.90
12152;DHT22;6139;51.274;7.128;2022-10-16T00:48:59;13.40;99.90
12152;DHT22;6139;51.274;7.128;2022-10-16T00:50:06;13.40;99.90
12152;DHT22;6139;51.274;7.128;2022-10-16T00:51:08;13.40;99.90
12152;DHT22;6139;51.274;7.128;2022-10-16T00:52:10;13.40;99.90
12152;DHT22;6139;51.274;7.128;2022-10-16T00:53:13;13.40;99.90
12152;DHT22;6139;51.274;7.128;2022-10-16T00:54:19;13.40;99.90
12152;DHT22;6139;51.274;7.128;2022-10-16T00:55:22;13.30;99.90
12152;DHT22;6139;51.274;7.128;2022-10-16T00:56:24;13.30;99.90
12152;DHT22;6139;51.274;7.128;2022-10-16T00:57:26;13.30;99.90
12152;DHT22;6139;51.274;7.128;2022-10-16T00:58:27;13.40;99.90
12152;DHT22;6139;51.274;7.128;2022-10-16T00:59:31;13.30;99.90
12152;DHT22;6139;51.274;7.128;2022-10-16T01:00:34;13.40;99.90
12152;DHT22;6139;51.274;7.128;2022-10-16T01:01:36;13.40;99.90
12152;DHT22;6139;51.274;7.128;2022-10-16T01:02:37;13.30;99.90
12152;DHT22;6139;51.274;7.128;2022-10-16T01:03:40;13.30;99.90
12152;DHT22;6139;51.274;7.128;2022-10-16T01:04:43;13.30;99.90
12152;DHT22;6139;51.274;7.128;2022-10-16T01:06:04;13.30;99.90
12152;DHT22;6139;51.274;7.128;2022-10-16T01:07:13;13.30;99.90
12152;DHT22;6139;51.274;7.128;2022-10-16T01:08:21;13.30;99.90
12152;DHT22;6139;51.274;7.128;2022-10-16T01:09:26;13.30;99.90
12152;DHT22;6139;51.274;7.128;2022-10-16T01:10:35;13.30;99.90
12152;DHT22;6139;51.274;7.128;2022-10-16T01:11:49;13.30;99.90
12152;DHT22;6139;51.274;7.128;2022-10-16T01:12:55;13.30;99.90
12152;DHT22;6139;51.274;7.128;2022-10-16T01:14:01;13.30;99.90
12152;DHT22;6139;51.274;7.128;2022-10-16T01:15:11;13.30;99.90
12152;DHT22;6139;51.274;7.128;2022-10-16T01:16:21;13.20;99.90
12152;DHT22;6139;51.274;7.128;2022-10-16T01:17:30;13.20;99.90
12152;DHT22;6139;51.274;7.128;2022-10-16T01:18:39;13.20;99.90
12152;DHT22;6139;51.274;7.128;2022-10-16T01:20:03;13.20;99.90
12152;DHT22;6139;51.274;7.128;2022-10-16T01:21:09;13.20;99.90
12152;DHT22;6139;51.274;7.128;2022-10-16T01:22:12;13.20;99.90
12152;DHT22;6139;51.274;7.128;2022-10-16T01:23:36;13.20;99.90
12152;DHT22;6139;51.274;7.128;2022-10-16T01:24:44;13.10;99.90
12152;DHT22;6139;51.274;7.128;2022-10-16T01:26:00;13.10;99.90
12152;DHT22;6139;51.274;7.128;2022-10-16T01:27:13;13.10;99.90
12152;DHT22;6139;51.274;7.128;2022-10-16T01:28:18;13.10;99.90
12152;DHT22;6139;51.274;7.128;2022-10-16T01:29:24;13.10;99.90
12152;DHT22;6139;51.274;7.128;2022-10-16T01:30:31;13.10;99.90
12152;DHT22;6139;51.274;7.128;2022-10-16T01:31:35;13.10;99.90
12152;DHT22;6139;51.274;7.128;2022-10-16T01:32:41;13.10;99.90
12152;DHT22;6139;51.274;7.128;2022-10-16T01:33:45;13.10;99.90
12152;DHT22;6139;51.274;7.128;2022-10-16T01:34:51;13.10;99.90
12152;DHT22;6139;51.274;7.128;2022-10-16T01:35:54;13.10;99.90
12152;DHT22;6139;51.274;7.128;2022-10-16T01:37:04;13.10;99.90
12152;DHT22;6139;51.274;7.128;2022-10-16T01:38:08;13.10;99.90
12152;DHT22;6139;51.274;7.128;2022-10-16T01:39:12;13.10;99.90
12152;DHT22;6139;51.274;7.128;2022-10-16T01:40:17;13.10;99.90
12152;DHT22;6139;51.274;7.128;2022-10-16T01:41:24;13.00;99.90
12152;DHT22;6139;51.274;7.128;2022-10-16T01:42:31;13.00;99.90
12152;DHT22;6139;51.274;7.128;2022-10-16T01:43:38;13.00;99.90
12152;DHT22;6139;51.274;7.128;2022-10-16T01:44:41;13.00;99.90
12152;DHT22;6139;51.274;7.128;2022-10-16T01:45:45;13.10;99.90
12152;DHT22;6139;51.274;7.128;2022-10-16T01:46:49;13.10;99.90
12152;DHT22;6139;51.274;7.128;2022-10-16T01:47:53;13.00;99.90
12152;DHT22;6139;51.274;7.128;2022-10-16T01:48:55;13.00;99.90
12152;DHT22;6139;51.274;7.128;2022-10-16T01:49:58;13.10;99.90
12152;DHT22;6139;51.274;7.128;2022-10-16T01:51:03;13.00;99.90
12152;DHT22;6139;51.274;7.128;2022-10-16T01:52:10;13.00;99.90
12152;DHT22;6139;51.274;7.128;2022-10-16T01:53:13;13.00;99.90
12152;DHT22;6139;51.274;7.128;2022-10-16T01:54:18;13.00;99.90
12152;DHT22;6139;51.274;7.128;2022-10-16T01:55:24;13.00;99.90
12152;DHT22;6139;51.274;7.128;2022-10-16T01:56:28;13.00;99.90
12152;DHT22;6139;51.274;7.128;2022-10-16T01:57:32;13.00;99.90
12152;DHT22;6139;51.274;7.128;2022-10-16T01:58:45;13.00;99.90
12152;DHT22;6139;51.274;7.128;2022-10-16T01:59:51;13.00;99.90
12152;DHT22;6139;51.274;7.128;2022-10-16T02:00:54;13.00;99.90
12152;DHT22;6139;51.274;7.128;2022-10-16T02:02:00;13.00;99.90
12152;DHT22;6139;51.274;7.128;2022-10-16T02:03:04;13.00;99.90
12152;DHT22;6139;51.274;7.128;2022-10-16T02:04:11;13.00;99.90
12152;DHT22;6139;51.274;7.128;2022-10-16T02:05:18;13.00;99.90
12152;DHT22;6139;51.274;7.128;2022-10-16T02:06:20;13.00;99.90
12152;DHT22;6139;51.274;7.128;2022-10-16T02:07:23;13.00;99.90
12152;DHT22;6139;51.274;7.128;2022-10-16T02:08:28;13.00;99.90
12152;DHT22;6139;51.274;7.128;2022-10-16T02:09:33;13.00;99.90
12152;DHT22;6139;51.274;7.128;2022-10-16T02:10:35;13.00;99.90
12152;DHT22;6139;51.274;7.128;2022-10-16T02:11:38;13.00;99.90
12152;DHT22;6139;51.274;7.128;2022-10-16T02:12:43;13.00;99.90
12152;DHT22;6139;51.274;7.128;2022-10-16T02:13:49;13.00;99.90
12152;DHT22;6139;51.274;7.128;2022-10-16T02:14:50;13.00;99.90
12152;DHT22;6139;51.274;7.128;2022-10-16T02:15:53;13.00;99.90
12152;DHT22;6139;51.274;7.128;2022-10-16T02:16:55;13.00;99.90
12152;DHT22;6139;51.274;7.128;2022-10-16T02:17:57;13.00;99.90
12152;DHT22;6139;51.274;7.128;2022-10-16T02:18:58;13.00;99.90
12152;DHT22;6139;51.274;7.128;2022-10-16T02:20:02;12.90;99.90
12152;DHT22;6139;51.274;7.128;2022-10-16T02:21:08;13.00;99.90
12152;DHT22;6139;51.274;7.128;2022-10-16T02:22:18;13.00;99.90
12152;DHT22;6139;51.274;7.128;2022-10-16T02:23:27;13.00;99.90
12152;DHT22;6139;51.274;7.128;2022-10-16T02:24:34;13.00;99.90
12152;DHT22;6139;51.274;7.128;2022-10-16T02:25:40;13.00;99.90
12152;DHT22;6139;51.274;7.128;2022-10-16T02:26:48;13.10;99.90
12152;DHT22;6139;51.274;7.128;2022-10-16T02:27:57;13.00;99.90
12152;DHT22;6139;51.274;7.128;2022-10-16T02:29:03;13.00;99.90
12152;DHT22;6139;51.274;7.128;2022-10-16T02:30:16;13.00;99.90
12152;DHT22;6139;51.274;7.128;2022-10-16T02:31:24;13.00;99.90
12152;DHT22;6139;51.274;7.128;2022-10-16T02:32:30;13.00;99.90
12152;DHT22;6139;51.274;7.128;2022-10-16T02:33:33;13.00;99.90
12152;DHT22;6139;51.274;7.128;2022-10-16T02:34:36;13.00;99.90
12152;DHT22;6139;51.274;7.128;2022-10-16T02:35:39;13.00;99.90
12152;DHT22;6139;51.274;7.128;2022-10-16T02:36:42;13.00;99.90
12152;DHT22;6139;51.274;7.128;2022-10-16T02:37:45;13.00;99.90
12152;DHT22;6139;51.274;7.128;2022-10-16T02:38:47;13.00;99.90
12152;DHT22;6139;51.274;7.128;2022-10-16T02:39:49;13.00;99.90
12152;DHT22;6139;51.274;7.128;2022-10-16T02:40:50;13.00;99.90
12152;DHT22;6139;51.274;7.128;2022-10-16T02:41:52;13.00;99.90
12152;DHT22;6139;51.274;7.128;2022-10-16T02:42:55;13.00;99.90
12152;DHT22;6139;51.274;7.128;2022-10-16T02:43:57;13.00;99.90
12152;DHT22;6139;51.274;7.128;2022-10-16T02:44:58;13.10;99.90
12152;DHT22;6139;51.274;7.128;2022-10-16T02:46:01;13.00;99.90
12152;DHT22;6139;51.274;7.128;2022-10-16T02:47:02;13.00;99.90
12152;DHT22;6139;51.274;7.128;2022-10-16T02:48:04;13.00;99.90
12152;DHT22;6139;51.274;7.128;2022-10-16T02:49:06;13.00;99.90
12152;DHT22;6139;51.274;7.128;2022-10-16T02:50:08;13.00;99.90
12152;DHT22;6139;51.274;7.128;2022-10-16T02:51:09;13.00;99.90
12152;DHT22;6139;51.274;7.128;2022-10-16T02:52:11;13.10;99.90
12152;DHT22;6139;51.274;7.128;2022-10-16T02:53:12;13.10;99.90
12152;DHT22;6139;51.274;7.128;2022-10-16T02:54:14;13.10;99.90
12152;DHT22;6139;51.274;7.128;2022-10-16T02:55:16;13.10;99.90
12152;DHT22;6139;51.274;7.128;2022-10-16T02:56:18;13.10;99.90
12152;DHT22;6139;51.274;7.128;2022-10-16T02:57:19;13.10;99.90
12152;DHT22;6139;51.274;7.128;2022-10-16T02:58:23;13.10;99.90
12152;DHT22;6139;51.274;7.128;2022-10-16T02:59:24;13.10;99.90
12152;DHT22;6139;51.274;7.128;2022-10-16T03:00:26;13.20;99.90
12152;DHT22;6139;51.274;7.128;2022-10-16T03:01:27;13.20;99.90
12152;DHT22;6139;51.274;7.128;2022-10-16T03:02:29;13.10;99.90
12152;DHT22;6139;51.274;7.128;2022-10-16T03:03:30;13.20;99.90
12152;DHT22;6139;51.274;7.128;2022-10-16T03:04:32;13.20;99.90
12152;DHT22;6139;51.274;7.128;2022-10-16T03:05:33;13.20;99.90
12152;DHT22;6139;51.274;7.128;2022-10-16T03:06:35;13.10;99.90
12152;DHT22;6139;51.274;7.128;2022-10-16T03:07:36;13.10;99.90
12152;DHT22;6139;51.274;7.128;2022-10-16T03:08:39;13.10;99.90
12152;DHT22;6139;51.274;7.128;2022-10-16T03:09:40;13.10;99.90
12152;DHT22;6139;51.274;7.128;2022-10-16T03:10:42;13.10;99.90
12152;DHT22;6139;51.274;7.128;2022-10-16T03:11:43;13.10;99.90
12152;DHT22;6139;51.274;7.128;2022-10-16T03:12:45;13.10;99.90
12152;DHT22;6139;51.274;7.128;2022-10-16T03:13:47;13.10;99.90
12152;DHT22;6139;51.274;7.128;2022-10-16T03:14:49;13.00;99.90
12152;DHT22;6139;51.274;7.128;2022-10-16T03:15:50;13.10;99.90
12152;DHT22;6139;51.274;7.128;2022-10-16T03:16:53;13.10;99.90
12152;DHT22;6139;51.274;7.128;2022-10-16T03:17:54;13.10;99.90
12152;DHT22;6139;51.274;7.128;2022-10-16T03:18:56;13.10;99.90
12152;DHT22;6139;51.274;7.128;2022-10-16T03:19:57;13.10;99.90
12152;DHT22;6139;51.274;7.128;2022-10-16T03:20:59;13.00;99.90
12152;DHT22;6139;51.274;7.128;2022-10-16T03:22:00;13.00;99.90
12152;DHT22;6139;51.274;7.128;2022-10-16T03:23:02;13.10;99.90
12152;DHT22;6139;51.274;7.128;2022-10-16T03:24:04;13.00;99.90
12152;DHT22;6139;51.274;7.128;2022-10-16T03:25:07;13.10;99.90
12152;DHT22;6139;51.274;7.128;2022-10-16T03:26:08;13.10;99.90
12152;DHT22;6139;51.274;7.128;2022-10-16T03:27:10;13.10;99.90
12152;DHT22;6139;51.274;7.128;2022-10-16T03:28:11;13.00;99.90
12152;DHT22;6139;51.274;7.128;2022-10-16T03:29:15;13.00;99.90
12152;DHT22;6139;51.274;7.128;2022-10-16T03:30:16;13.00;99.90
12152;DHT22;6139;51.274;7.128;2022-10-16T03:31:18;13.00;99.90
12152;DHT22;6139;51.274;7.128;2022-10-16T03:32:19;13.00;99.90
12152;DHT22;6139;51.274;7.128;2022-10-16T03:33:22;13.00;99.90
12152;DHT22;6139;51.274;7.128;2022-10-16T03:34:23;13.00;99.90
12152;DHT22;6139;51.274;7.128;2022-10-16T03:35:26;13.00;99.90
12152;DHT22;6139;51.274;7.128;2022-10-16T03:36:27;13.00;99.90
12152;DHT22;6139;51.274;7.128;2022-10-16T03:37:29;13.00;99.90
12152;DHT22;6139;51.274;7.128;2022-10-16T03:38:30;13.00;99.90
12152;DHT22;6139;51.274;7.128;2022-10-16T03:39:32;13.00;99.90
12152;DHT22;6139;51.274;7.128;2022-10-16T03:40:33;12.90;99.90
12152;DHT22;6139;51.274;7.128;2022-10-16T03:41:35;12.90;99.90
12152;DHT22;6139;51.274;7.128;2022-10-16T03:42:36;12.90;99.90
12152;DHT22;6139;51.274;7.128;2022-10-16T03:43:38;12.90;99.90
12152;DHT22;6139;51.274;7.128;2022-10-16T03:44:41;12.90;99.90
12152;DHT22;6139;51.274;7.128;2022-10-16T03:45:43;12.90;99.90
12152;DHT22;6139;51.274;7.128;2022-10-16T03:46:44;13.00;99.90
12152;DHT22;6139;51.274;7.128;2022-10-16T03:47:46;12.90;99.90
12152;DHT22;6139;51.274;7.128;2022-10-16T03:48:48;12.90;99.90
12152;DHT22;6139;51.274;7.128;2022-10-16T03:49:50;12.90;99.90
12152;DHT22;6139;51.274;7.128;2022-10-16T03:50:51;12.90;99.90
12152;DHT22;6139;51.274;7.128;2022-10-16T03:51:53;13.00;99.90
12152;DHT22;6139;51.274;7.128;2022-10-16T03:52:54;13.00;99.90
12152;DHT22;6139;51.274;7.128;2022-10-16T03:53:56;13.00;99.90
12152;DHT22;6139;51.274;7.128;2022-10-16T03:54:57;13.00;99.90
12152;DHT22;6139;51.274;7.128;2022-10-16T03:55:59;13.00;99.90
12152;DHT22;6139;51.274;7.128;2022-10-16T03:57:01;13.00;99.90
12152;DHT22;6139;51.274;7.128;2022-10-16T03:58:03;13.00;99.90
12152;DHT22;6139;51.274;7.128;2022-10-16T03:59:04;13.00;99.90
12152;DHT22;6139;51.274;7.128;2022-10-16T04:00:09;13.00;99.90
12152;DHT22;6139;51.274;7.128;2022-10-16T04:01:13;12.90;99.90
12152;DHT22;6139;51.274;7.128;2022-10-16T04:02:16;12.90;99.90
12152;DHT22;6139;51.274;7.128;2022-10-16T04:03:17;12.90;99.90
12152;DHT22;6139;51.274;7.128;2022-10-16T04:04:19;12.90;99.90
12152;DHT22;6139;51.274;7.128;2022-10-16T04:05:20;12.90;99.90
12152;DHT22;6139;51.274;7.128;2022-10-16T04:06:22;12.90;99.90
12152;DHT22;6139;51.274;7.128;2022-10-16T04:07:23;12.90;99.90
12152;DHT22;6139;51.274;7.128;2022-10-16T04:08:25;12.90;99.90
12152;DHT22;6139;51.274;7.128;2022-10-16T04:09:27;12.90;99.90
12152;DHT22;6139;51.274;7.128;2022-10-16T04:10:29;12.90;99.90
12152;DHT22;6139;51.274;7.128;2022-10-16T04:11:30;12.80;99.90
12152;DHT22;6139;51.274;7.128;2022-10-16T04:12:32;12.80;99.90
12152;DHT22;6139;51.274;7.128;2022-10-16T04:13:33;12.90;99.90
12152;DHT22;6139;51.274;7.128;2022-10-16T04:14:35;12.90;99.90
12152;DHT22;6139;51.274;7.128;2022-10-16T04:15:38;12.80;99.90
12152;DHT22;6139;51.274;7.128;2022-10-16T04:16:40;12.80;99.90
12152;DHT22;6139;51.274;7.128;2022-10-16T04:17:41;12.80;99.90
12152;DHT22;6139;51.274;7.128;2022-10-16T04:18:43;12.80;99.90
12152;DHT22;6139;51.274;7.128;2022-10-16T04:19:44;12.80;99.90
12152;DHT22;6139;51.274;7.128;2022-10-16T04:20:46;12.80;99.90
12152;DHT22;6139;51.274;7.128;2022-10-16T04:21:47;12.80;99.90
12152;DHT22;6139;51.274;7.128;2022-10-16T04:22:49;12.80;99.90
12152;DHT22;6139;51.274;7.128;2022-10-16T04:23:50;12.70;99.90
12152;DHT22;6139;51.274;7.128;2022-10-16T04:24:52;12.80;99.90
12152;DHT22;6139;51.274;7.128;2022-10-16T04:25:53;12.70;99.90
12152;DHT22;6139;51.274;7.128;2022-10-16T04:26:56;12.80;99.90
12152;DHT22;6139;51.274;7.128;2022-10-16T04:27:57;12.80;99.90
12152;DHT22;6139;51.274;7.128;2022-10-16T04:28:59;12.80;99.90
12152;DHT22;6139;51.274;7.128;2022-10-16T04:30:00;12.80;99.90
12152;DHT22;6139;51.274;7.128;2022-10-16T04:31:05;12.80;99.90
12152;DHT22;6139;51.274;7.128;2022-10-16T04:32:07;12.80;99.90
12152;DHT22;6139;51.274;7.128;2022-10-16T04:33:10;12.80;99.90
12152;DHT22;6139;51.274;7.128;2022-10-16T04:34:11;12.80;99.90
12152;DHT22;6139;51.274;7.128;2022-10-16T04:35:13;12.70;99.90
12152;DHT22;6139;51.274;7.128;2022-10-16T04:36:14;12.70;99.90
12152;DHT22;6139;51.274;7.128;2022-10-16T04:37:16;12.70;99.90
12152;DHT22;6139;51.274;7.128;2022-10-16T04:38:17;12.70;99.90
12152;DHT22;6139;51.274;7.128;2022-10-16T04:39:19;12.70;99.90
12152;DHT22;6139;51.274;7.128;2022-10-16T04:40:20;12.70;99.90
12152;DHT22;6139;51.274;7.128;2022-10-16T04:41:23;12.70;99.90
12152;DHT22;6139;51.274;7.128;2022-10-16T04:42:24;12.70;99.90
12152;DHT22;6139;51.274;7.128;2022-10-16T04:43:26;12.70;99.90
12152;DHT22;6139;51.274;7.128;2022-10-16T04:44:27;12.70;99.90
12152;DHT22;6139;51.274;7.128;2022-10-16T04:45:29;12.70;99.90
12152;DHT22;6139;51.274;7.128;2022-10-16T04:46:32;12.70;99.90
12152;DHT22;6139;51.274;7.128;2022-10-16T04:47:34;12.70;99.90
12152;DHT22;6139;51.274;7.128;2022-10-16T04:48:35;12.70;99.90
12152;DHT22;6139;51.274;7.128;2022-10-16T04:49:37;12.70;99.90
12152;DHT22;6139;51.274;7.128;2022-10-16T04:50:38;12.70;99.90
12152;DHT22;6139;51.274;7.128;2022-10-16T04:51:40;12.70;99.90
12152;DHT22;6139;51.274;7.128;2022-10-16T04:52:41;12.70;99.90
12152;DHT22;6139;51.274;7.128;2022-10-16T04:53:43;12.70;99.90
12152;DHT22;6139;51.274;7.128;2022-10-16T04:54:44;12.70;99.90
12152;DHT22;6139;51.274;7.128;2022-10-16T04:55:47;12.70;99.90
12152;DHT22;6139;51.274;7.128;2022-10-16T04:56:48;12.70;99.90
12152;DHT22;6139;51.274;7.128;2022-10-16T04:57:52;12.60;99.90
12152;DHT22;6139;51.274;7.128;2022-10-16T04:58:53;12.60;99.90
12152;DHT22;6139;51.274;7.128;2022-10-16T04:59:55;12.60;99.90
12152;DHT22;6139;51.274;7.128;2022-10-16T05:00:56;12.60;99.90
12152;DHT22;6139;51.274;7.128;2022-10-16T05:02:00;12.60;99.90
12152;DHT22;6139;51.274;7.128;2022-10-16T05:03:02;12.60;99.90
12152;DHT22;6139;51.274;7.128;2022-10-16T05:04:06;12.60;99.90
12152;DHT22;6139;51.274;7.128;2022-10-16T05:05:09;12.60;99.90
12152;DHT22;6139;51.274;7.128;2022-10-16T05:06:11;12.60;99.90
12152;DHT22;6139;51.274;7.128;2022-10-16T05:07:12;12.60;99.90
12152;DHT22;6139;51.274;7.128;2022-10-16T05:08:14;12.50;99.90
12152;DHT22;6139;51.274;7.128;2022-10-16T05:09:16;12.50;99.90
12152;DHT22;6139;51.274;7.128;2022-10-16T05:10:18;12.50;99.90
12152;DHT22;6139;51.274;7.128;2022-10-16T05:11:19;12.50;99.90
12152;DHT22;6139;51.274;7.128;2022-10-16T05:12:21;12.50;99.90
12152;DHT22;6139;51.274;7.128;2022-10-16T05:13:22;12.50;99.90
12152;DHT22;6139;51.274;7.128;2022-10-16T05:14:24;12.50;99.90
12152;DHT22;6139;51.274;7.128;2022-10-16T05:15:26;12.50;99.90
12152;DHT22;6139;51.274;7.128;2022-10-16T05:16:28;12.50;99.90
12152;DHT22;6139;51.274;7.128;2022-10-16T05:17:32;12.50;99.90
12152;DHT22;6139;51.274;7.128;2022-10-16T05:18:34;12.50;99.90
12152;DHT22;6139;51.274;7.128;2022-10-16T05:19:35;12.50;99.90
12152;DHT22;6139;51.274;7.128;2022-10-16T05:20:37;12.50;99.90
12152;DHT22;6139;51.274;7.128;2022-10-16T05:21:38;12.50;99.90
12152;DHT22;6139;51.274;7.128;2022-10-16T05:22:40;12.50;99.90
12152;DHT22;6139;51.274;7.128;2022-10-16T05:23:41;12.50;99.90
12152;DHT22;6139;51.274;7.128;2022-10-16T05:24:43;12.50;99.90
12152;DHT22;6139;51.274;7.128;2022-10-16T05:25:52;12.50;99.90
12152;DHT22;6139;51.274;7.128;2022-10-16T05:26:55;12.50;99.90
12152;DHT22;6139;51.274;7.128;2022-10-16T05:27:56;12.50;99.90
12152;DHT22;6139;51.274;7.128;2022-10-16T05:28:59;12.50;99.90
12152;DHT22;6139;51.274;7.128;2022-10-16T05:30:00;12.50;99.90
12152;DHT22;6139;51.274;7.128;2022-10-16T05:31:04;12.50;99.90
12152;DHT22;6139;51.274;7.128;2022-10-16T05:32:05;12.50;99.90
12152;DHT22;6139;51.274;7.128;2022-10-16T05:33:09;12.50;99.90
12152;DHT22;6139;51.274;7.128;2022-10-16T05:34:10;12.50;99.90
12152;DHT22;6139;51.274;7.128;2022-10-16T05:35:12;12.50;99.90
12152;DHT22;6139;51.274;7.128;2022-10-16T05:36:13;12.50;99.90
12152;DHT22;6139;51.274;7.128;2022-10-16T05:37:15;12.50;99.90
12152;DHT22;6139;51.274;7.128;2022-10-16T05:38:17;12.50;99.90
12152;DHT22;6139;51.274;7.128;2022-10-16T05:39:19;12.50;99.90
12152;DHT22;6139;51.274;7.128;2022-10-16T05:40:20;12.50;99.90
12152;DHT22;6139;51.274;7.128;2022-10-16T05:41:22;12.50;99.90
12152;DHT22;6139;51.274;7.128;2022-10-16T05:42:26;12.50;99.90
12152;DHT22;6139;51.274;7.128;2022-10-16T05:43:28;12.50;99.90
12152;DHT22;6139;51.274;7.128;2022-10-16T05:44:29;12.50;99.90
12152;DHT22;6139;51.274;7.128;2022-10-16T05:45:32;12.50;99.90
12152;DHT22;6139;51.274;7.128;2022-10-16T05:46:33;12.50;99.90
12152;DHT22;6139;51.274;7.128;2022-10-16T05:47:35;12.50;99.90
12152;DHT22;6139;51.274;7.128;2022-10-16T05:48:37;12.50;99.90
12152;DHT22;6139;51.274;7.128;2022-10-16T05:49:39;12.50;99.90
12152;DHT22;6139;51.274;7.128;2022-10-16T05:50:40;12.50;99.90
12152;DHT22;6139;51.274;7.128;2022-10-16T05:51:43;12.50;99.90
12152;DHT22;6139;51.274;7.128;2022-10-16T05:52:45;12.50;99.90
12152;DHT22;6139;51.274;7.128;2022-10-16T05:53:46;12.40;99.90
12152;DHT22;6139;51.274;7.128;2022-10-16T05:54:48;12.50;99.90
12152;DHT22;6139;51.274;7.128;2022-10-16T05:55:52;12.40;99.90
12152;DHT22;6139;51.274;7.128;2022-10-16T05:56:54;12.40;99.90
12152;DHT22;6139;51.274;7.128;2022-10-16T05:57:55;12.50;99.90
12152;DHT22;6139;51.274;7.128;2022-10-16T05:58:57;12.50;99.90
12152;DHT22;6139;51.274;7.128;2022-10-16T05:59:58;12.50;99.90
12152;DHT22;6139;51.274;7.128;2022-10-16T06:01:02;12.50;99.90
12152;DHT22;6139;51.274;7.128;2022-10-16T06:02:04;12.40;99.90
12152;DHT22;6139;51.274;7.128;2022-10-16T06:03:06;12.40;99.90
12152;DHT22;6139;51.274;7.128;2022-10-16T06:04:09;12.50;99.90
12152;DHT22;6139;51.274;7.128;2022-10-16T06:05:11;12.50;99.90
12152;DHT22;6139;51.274;7.128;2022-10-16T06:06:14;12.50;99.90
12152;DHT22;6139;51.274;7.128;2022-10-16T06:07:16;12.50;99.90
12152;DHT22;6139;51.274;7.128;2022-10-16T06:08:18;12.50;99.90
12152;DHT22;6139;51.274;7.128;2022-10-16T06:09:20;12.50;99.90
12152;DHT22;6139;51.274;7.128;2022-10-16T06:10:21;12.50;99.90
12152;DHT22;6139;51.274;7.128;2022-10-16T06:11:25;12.50;99.90
12152;DHT22;6139;51.274;7.128;2022-10-16T06:12:27;12.50;99.90
12152;DHT22;6139;51.274;7.128;2022-10-16T06:13:29;12.50;99.90
12152;DHT22;6139;51.274;7.128;2022-10-16T06:14:30;12.50;99.90
12152;DHT22;6139;51.274;7.128;2022-10-16T06:15:32;12.50;99.90
12152;DHT22;6139;51.274;7.128;2022-10-16T06:16:33;12.50;99.90
12152;DHT22;6139;51.274;7.128;2022-10-16T06:17:35;12.50;99.90
12152;DHT22;6139;51.274;7.128;2022-10-16T06:18:37;12.50;99.90
12152;DHT22;6139;51.274;7.128;2022-10-16T06:19:40;12.60;99.90
12152;DHT22;6139;51.274;7.128;2022-10-16T06:20:41;12.50;99.90
12152;DHT22;6139;51.274;7.128;2022-10-16T06:21:44;12.50;99.90
12152;DHT22;6139;51.274;7.128;2022-10-16T06:22:45;12.50;99.90
12152;DHT22;6139;51.274;7.128;2022-10-16T06:23:47;12.50;99.90
12152;DHT22;6139;51.274;7.128;2022-10-16T06:24:49;12.50;99.90
12152;DHT22;6139;51.274;7.128;2022-10-16T06:25:51;12.50;99.90
12152;DHT22;6139;51.274;7.128;2022-10-16T06:26:52;12.50;99.90
12152;DHT22;6139;51.274;7.128;2022-10-16T06:27:54;12.50;99.90
12152;DHT22;6139;51.274;7.128;2022-10-16T06:28:56;12.50;99.90
12152;DHT22;6139;51.274;7.128;2022-10-16T06:29:58;12.50;99.90
12152;DHT22;6139;51.274;7.128;2022-10-16T06:31:00;12.50;99.90
12152;DHT22;6139;51.274;7.128;2022-10-16T06:32:02;12.50;99.90
12152;DHT22;6139;51.274;7.128;2022-10-16T06:33:03;12.50;99.90
12152;DHT22;6139;51.274;7.128;2022-10-16T06:34:05;12.50;99.90
12152;DHT22;6139;51.274;7.128;2022-10-16T06:35:11;12.60;99.90
12152;DHT22;6139;51.274;7.128;2022-10-16T06:36:15;12.60;99.90
12152;DHT22;6139;51.274;7.128;2022-10-16T06:37:16;12.60;99.90
12152;DHT22;6139;51.274;7.128;2022-10-16T06:38:18;12.70;99.90
12152;DHT22;6139;51.274;7.128;2022-10-16T06:39:19;12.70;99.90
12152;DHT22;6139;51.274;7.128;2022-10-16T06:40:21;12.70;99.90
12152;DHT22;6139;51.274;7.128;2022-10-16T06:41:23;12.70;99.90
12152;DHT22;6139;51.274;7.128;2022-10-16T06:42:25;12.70;99.90
12152;DHT22;6139;51.274;7.128;2022-10-16T06:43:28;12.70;99.90
12152;DHT22;6139;51.274;7.128;2022-10-16T06:44:32;12.70;99.90